createdAt,value
2019-04-04T00:00:14.336Z,68.74
2019-04-04T00:01:13.197Z,69.36
2019-04-04T00:02:13.188Z,68.74
2019-04-04T00:03:13.168Z,68.74
2019-04-04T00:04:13.262Z,68.64
2019-04-04T00:05:13.146Z,68.54
2019-04-04T00:06:13.137Z,69.05
2019-04-04T00:07:13.141Z,69.56
2019-04-04T00:08:13.116Z,69.46
2019-04-04T00:09:13.133Z,69.26
2019-04-04T00:10:13.092Z,68.88
2019-04-04T00:11:13.145Z,68.77
2019-04-04T00:12:13.073Z,68.77
2019-04-04T00:13:13.058Z,68.57
2019-04-04T00:14:13.531Z,68.98
2019-04-04T00:15:14.937Z,69.29
2019-04-04T00:16:15.617Z,68.67
2019-04-04T00:17:13.033Z,68.46
2019-04-04T00:18:13.038Z,68.67
2019-04-04T00:19:12.993Z,69.29
2019-04-04T00:20:12.983Z,69.39
2019-04-04T00:21:12.973Z,69.29
2019-04-04T00:22:12.997Z,68.91
2019-04-04T00:23:12.964Z,68.98
2019-04-04T00:24:12.952Z,68.77
2019-04-04T00:25:12.934Z,68.67
2019-04-04T00:26:12.920Z,68.98
2019-04-04T00:27:13.656Z,69.09
2019-04-04T00:28:14.848Z,68.91
2019-04-04T00:29:12.895Z,69.01
2019-04-04T00:30:12.880Z,69.49
2019-04-04T00:31:12.866Z,68.80
2019-04-04T00:32:12.852Z,68.40
2019-04-04T00:33:12.848Z,69.01
2019-04-04T00:34:13.765Z,69.63
2019-04-04T00:35:12.822Z,69.53
2019-04-04T00:36:12.840Z,69.53
2019-04-04T00:37:12.802Z,69.42
2019-04-04T00:38:12.798Z,68.80
2019-04-04T00:39:12.794Z,68.70
2019-04-04T00:40:12.795Z,68.80
2019-04-04T00:41:13.000Z,68.80
2019-04-04T00:42:12.764Z,68.80
2019-04-04T00:43:12.741Z,68.91
2019-04-04T00:44:12.727Z,68.80
2019-04-04T00:45:12.722Z,69.32
2019-04-04T00:46:12.705Z,68.80
2019-04-04T00:47:12.699Z,69.04
2019-04-04T00:48:12.745Z,69.22
2019-04-04T00:49:12.679Z,69.46
2019-04-04T00:50:12.674Z,69.15
2019-04-04T00:51:12.666Z,69.25
2019-04-04T00:52:12.651Z,69.87
2019-04-04T00:53:12.649Z,69.04
2019-04-04T00:54:14.104Z,69.25
2019-04-04T00:55:15.546Z,69.38
2019-04-04T00:56:12.600Z,70.18
2019-04-04T00:57:12.588Z,68.63
2019-04-04T00:58:12.584Z,70.52
2019-04-04T00:59:12.565Z,70.10
2019-04-04T01:00:12.574Z,70.07
2019-04-04T01:01:12.575Z,69.18
2019-04-04T01:02:12.538Z,70.31
2019-04-04T01:03:12.527Z,70.10
2019-04-04T01:04:12.517Z,68.98
2019-04-04T01:05:12.520Z,69.70
2019-04-04T01:06:12.493Z,70.42
2019-04-04T01:07:12.484Z,69.90
2019-04-04T01:08:12.482Z,70.42
2019-04-04T01:09:13.729Z,70.62
2019-04-04T01:10:12.459Z,70.52
2019-04-04T01:11:12.437Z,70.31
2019-04-04T01:12:12.426Z,70.52
2019-04-04T01:13:12.415Z,70.52
2019-04-04T01:14:12.404Z,70.72
2019-04-04T01:15:12.413Z,70.10
2019-04-04T01:16:12.390Z,70.00
2019-04-04T01:17:12.386Z,69.90
2019-04-04T01:18:12.377Z,70.21
2019-04-04T01:19:12.349Z,70.83
2019-04-04T01:20:12.352Z,70.62
2019-04-04T01:21:12.365Z,70.31
2019-04-04T01:22:12.318Z,70.42
2019-04-04T01:23:12.318Z,70.86
2019-04-04T01:24:12.313Z,70.76
2019-04-04T01:25:12.289Z,71.17
2019-04-04T01:26:12.300Z,70.86
2019-04-04T01:27:12.284Z,70.55
2019-04-04T01:28:12.254Z,70.76
2019-04-04T01:29:12.244Z,70.86
2019-04-04T01:30:12.736Z,71.48
2019-04-04T01:31:14.745Z,70.96
2019-04-04T01:32:12.231Z,70.96
2019-04-04T01:33:12.211Z,71.37
2019-04-04T01:34:12.185Z,70.96
2019-04-04T01:35:12.187Z,71.51
2019-04-04T01:36:12.177Z,71.58
2019-04-04T01:37:12.233Z,71.48
2019-04-04T01:38:12.160Z,71.30
2019-04-04T01:39:12.134Z,71.41
2019-04-04T01:40:12.123Z,71.37
2019-04-04T01:41:12.121Z,71.00
2019-04-04T01:42:12.114Z,71.82
2019-04-04T01:43:12.090Z,71.10
2019-04-04T01:44:12.114Z,71.61
2019-04-04T01:45:13.084Z,71.41
2019-04-04T01:46:12.981Z,71.30
2019-04-04T01:47:12.046Z,71.20
2019-04-04T01:48:12.056Z,71.30
2019-04-04T01:49:26.979Z,71.30
2019-04-04T01:50:12.038Z,71.10
2019-04-04T01:51:12.013Z,71.72
2019-04-04T01:52:12.008Z,71.30
2019-04-04T01:53:12.008Z,71.30
2019-04-04T01:54:11.968Z,71.10
2019-04-04T01:55:11.975Z,71.10
2019-04-04T01:56:11.971Z,72.13
2019-04-04T01:57:11.941Z,71.23
2019-04-04T01:58:11.938Z,72.06
2019-04-04T01:59:12.249Z,72.37
2019-04-04T02:00:14.748Z,72.88
2019-04-04T02:01:11.911Z,72.37
2019-04-04T02:02:11.884Z,72.88
2019-04-04T02:03:11.869Z,72.27
2019-04-04T02:04:11.861Z,72.27
2019-04-04T02:05:11.856Z,73.09
2019-04-04T02:06:11.846Z,73.50
2019-04-04T02:07:11.841Z,73.19
2019-04-04T02:08:11.823Z,73.40
2019-04-04T02:09:11.814Z,73.40
2019-04-04T02:10:11.850Z,73.09
2019-04-04T02:11:11.790Z,73.71
2019-04-04T02:12:11.787Z,73.54
2019-04-04T02:13:11.786Z,73.40
2019-04-04T02:14:12.434Z,73.50
2019-04-04T02:15:13.803Z,73.19
2019-04-04T02:16:11.746Z,73.71
2019-04-04T02:17:12.179Z,74.02
2019-04-04T02:18:11.716Z,73.91
2019-04-04T02:19:11.700Z,73.30
2019-04-04T02:20:11.718Z,73.91
2019-04-04T02:21:11.676Z,73.91
2019-04-04T02:22:11.678Z,74.02
2019-04-04T02:23:11.668Z,73.91
2019-04-04T02:24:11.649Z,74.33
2019-04-04T02:25:11.633Z,74.74
2019-04-04T02:26:11.641Z,74.43
2019-04-04T02:27:12.170Z,74.02
2019-04-04T02:28:11.630Z,74.53
2019-04-04T02:29:11.726Z,74.63
2019-04-04T02:30:14.936Z,74.22
2019-04-04T02:31:11.579Z,74.33
2019-04-04T02:32:11.570Z,74.53
2019-04-04T02:33:11.548Z,74.22
2019-04-04T02:34:11.555Z,74.84
2019-04-04T02:35:11.858Z,74.84
2019-04-04T02:36:16.196Z,74.84
2019-04-04T02:37:12.516Z,74.33
2019-04-04T02:38:11.503Z,74.43
2019-04-04T02:39:11.523Z,74.84
2019-04-04T02:40:11.515Z,74.84
2019-04-04T02:41:14.971Z,74.88
2019-04-04T02:42:11.509Z,74.84
2019-04-04T02:43:11.457Z,74.84
2019-04-04T02:44:11.453Z,75.36
2019-04-04T02:45:11.448Z,75.36
2019-04-04T02:46:12.393Z,75.36
2019-04-04T02:47:11.409Z,75.67
2019-04-04T02:48:11.389Z,75.46
2019-04-04T02:49:11.379Z,75.46
2019-04-04T02:50:11.363Z,75.67
2019-04-04T02:51:11.396Z,75.67
2019-04-04T02:52:13.322Z,75.56
2019-04-04T02:53:11.354Z,75.56
2019-04-04T02:54:11.328Z,75.46
2019-04-04T02:55:11.330Z,76.70
2019-04-04T02:56:11.301Z,76.18
2019-04-04T02:57:11.354Z,76.08
2019-04-04T02:58:14.239Z,75.98
2019-04-04T02:59:11.290Z,75.46
2019-04-04T03:00:11.257Z,75.26
2019-04-04T03:01:11.252Z,76.08
2019-04-04T03:02:11.246Z,76.39
2019-04-04T03:03:11.282Z,76.39
2019-04-04T03:04:13.615Z,76.39
2019-04-04T03:05:11.224Z,76.39
2019-04-04T03:06:11.204Z,75.98
2019-04-04T03:07:11.209Z,76.49
2019-04-04T03:08:11.193Z,76.49
2019-04-04T03:09:11.163Z,76.08
2019-04-04T03:10:15.258Z,75.77
2019-04-04T03:11:12.200Z,76.08
2019-04-04T03:12:11.130Z,76.08
2019-04-04T03:13:11.159Z,76.18
2019-04-04T03:14:11.112Z,75.98
2019-04-04T03:15:11.100Z,75.77
2019-04-04T03:16:11.113Z,75.46
2019-04-04T03:17:11.074Z,75.73
2019-04-04T03:18:11.077Z,75.77
2019-04-04T03:19:11.303Z,75.87
2019-04-04T03:20:11.046Z,75.77
2019-04-04T03:21:11.041Z,75.46
2019-04-04T03:22:11.028Z,75.56
2019-04-04T03:23:11.012Z,75.98
2019-04-04T03:24:11.063Z,76.08
2019-04-04T03:25:14.253Z,76.29
2019-04-04T03:26:10.995Z,76.29
2019-04-04T03:27:10.974Z,75.98
2019-04-04T03:28:10.961Z,75.56
2019-04-04T03:29:11.070Z,75.46
2019-04-04T03:30:14.529Z,75.67
2019-04-04T03:31:11.921Z,75.39
2019-04-04T03:32:14.431Z,75.70
2019-04-04T03:33:11.959Z,76.08
2019-04-04T03:34:12.560Z,76.12
2019-04-04T03:35:10.882Z,76.12
2019-04-04T03:36:10.873Z,76.21
2019-04-04T03:37:12.479Z,76.84
2019-04-04T03:38:13.483Z,76.77
2019-04-04T03:39:10.843Z,76.73
2019-04-04T03:40:10.876Z,76.67
2019-04-04T03:41:10.879Z,76.73
2019-04-04T03:42:10.869Z,76.94
2019-04-04T03:43:10.851Z,77.59
2019-04-04T03:44:10.804Z,77.04
2019-04-04T03:45:10.843Z,77.15
2019-04-04T03:46:10.761Z,76.73
2019-04-04T03:47:11.377Z,77.18
2019-04-04T03:48:10.759Z,77.18
2019-04-04T03:49:10.782Z,76.87
2019-04-04T03:50:10.747Z,76.98
2019-04-04T03:51:10.714Z,77.28
2019-04-04T03:52:11.613Z,77.39
2019-04-04T03:53:10.690Z,78.11
2019-04-04T03:54:10.707Z,77.59
2019-04-04T03:55:10.667Z,77.73
2019-04-04T03:56:10.656Z,78.42
2019-04-04T03:57:12.184Z,78.52
2019-04-04T03:58:10.646Z,77.91
2019-04-04T03:59:10.739Z,78.35
2019-04-04T04:00:10.615Z,78.42
2019-04-04T04:01:13.021Z,78.31
2019-04-04T04:02:10.591Z,78.31
2019-04-04T04:03:10.593Z,78.01
2019-04-04T04:04:10.571Z,78.42
2019-04-04T04:05:12.943Z,78.05
2019-04-04T04:06:10.583Z,78.45
2019-04-04T04:07:13.857Z,79.08
2019-04-04T04:08:10.540Z,78.14
2019-04-04T04:09:10.537Z,78.14
2019-04-04T04:10:10.510Z,78.45
2019-04-04T04:11:10.494Z,79.18
2019-04-04T04:12:11.377Z,78.94
2019-04-04T04:13:10.484Z,78.63
2019-04-04T04:14:10.485Z,78.31
2019-04-04T04:15:10.464Z,78.66
2019-04-04T04:16:10.441Z,78.42
2019-04-04T04:17:11.697Z,78.56
2019-04-04T04:18:10.454Z,78.25
2019-04-04T04:19:10.481Z,78.66
2019-04-04T04:20:10.490Z,78.45
2019-04-04T04:21:11.296Z,78.56
2019-04-04T04:22:12.872Z,78.77
2019-04-04T04:23:10.396Z,78.45
2019-04-04T04:24:10.410Z,78.56
2019-04-04T04:25:10.363Z,78.35
2019-04-04T04:26:10.327Z,78.87
2019-04-04T04:27:14.496Z,78.56
2019-04-04T04:28:11.443Z,79.69
2019-04-04T04:29:10.311Z,79.42
2019-04-04T04:30:10.512Z,79.83
2019-04-04T04:31:14.317Z,79.22
2019-04-04T04:32:10.353Z,79.63
2019-04-04T04:33:10.342Z,80.04
2019-04-04T04:34:10.281Z,79.63
2019-04-04T04:35:10.742Z,79.42
2019-04-04T04:36:14.697Z,79.83
2019-04-04T04:37:11.223Z,79.73
2019-04-04T04:38:10.213Z,80.25
2019-04-04T04:39:10.188Z,79.73
2019-04-04T04:40:13.812Z,80.46
2019-04-04T04:41:10.179Z,80.15
2019-04-04T04:42:10.158Z,80.15
2019-04-04T04:43:10.145Z,80.15
2019-04-04T04:44:10.144Z,80.35
2019-04-04T04:45:12.088Z,80.46
2019-04-04T04:46:10.140Z,80.15
2019-04-04T04:47:10.101Z,79.83
2019-04-04T04:48:10.105Z,80.15
2019-04-04T04:49:10.135Z,80.25
2019-04-04T04:50:10.152Z,80.04
2019-04-04T04:51:11.971Z,79.52
2019-04-04T04:52:10.117Z,79.73
2019-04-04T04:53:10.037Z,79.83
2019-04-04T04:54:10.070Z,79.52
2019-04-04T04:55:12.051Z,80.04
2019-04-04T04:56:10.030Z,79.90
2019-04-04T04:57:14.430Z,80.15
2019-04-04T04:58:11.219Z,80.15
2019-04-04T04:59:12.872Z,80.11
2019-04-04T05:00:10.106Z,80.35
2019-04-04T05:01:09.963Z,80.35
2019-04-04T05:02:09.954Z,80.32
2019-04-04T05:03:09.943Z,80.35
2019-04-04T05:04:09.937Z,80.25
2019-04-04T05:05:09.913Z,80.04
2019-04-04T05:06:09.892Z,79.94
2019-04-04T05:07:09.920Z,79.94
2019-04-04T05:08:10.602Z,80.04
2019-04-04T05:09:09.865Z,80.56
2019-04-04T05:10:09.860Z,80.35
2019-04-04T05:11:09.956Z,80.46
2019-04-04T05:12:09.829Z,80.87
2019-04-04T05:13:09.828Z,80.87
2019-04-04T05:14:09.821Z,80.56
2019-04-04T05:15:09.815Z,80.87
2019-04-04T05:16:09.785Z,80.87
2019-04-04T05:17:10.106Z,80.76
2019-04-04T05:18:11.888Z,81.38
2019-04-04T05:19:09.797Z,81.80
2019-04-04T05:20:09.747Z,81.70
2019-04-04T05:21:09.731Z,81.49
2019-04-04T05:22:09.831Z,81.70
2019-04-04T05:23:11.080Z,81.59
2019-04-04T05:24:09.716Z,81.80
2019-04-04T05:25:09.691Z,81.38
2019-04-04T05:26:09.908Z,81.38
2019-04-04T05:27:09.702Z,81.59
2019-04-04T05:28:10.828Z,81.94
2019-04-04T05:29:13.262Z,82.97
2019-04-04T05:30:09.636Z,82.83
2019-04-04T05:31:09.626Z,82.73
2019-04-04T05:32:09.689Z,83.04
2019-04-04T05:33:09.618Z,82.93
2019-04-04T05:34:09.650Z,82.31
2019-04-04T05:35:09.693Z,83.04
2019-04-04T05:36:09.786Z,82.62
2019-04-04T05:37:10.439Z,82.93
2019-04-04T05:38:12.250Z,83.04
2019-04-04T05:39:09.591Z,82.31
2019-04-04T05:40:09.657Z,82.89
2019-04-04T05:41:09.519Z,82.31
2019-04-04T05:42:09.505Z,81.86
2019-04-04T05:43:09.520Z,81.96
2019-04-04T05:44:10.316Z,81.96
2019-04-04T05:45:09.492Z,81.86
2019-04-04T05:46:09.489Z,81.86
2019-04-04T05:47:09.564Z,81.45
2019-04-04T05:48:09.447Z,81.56
2019-04-04T05:49:09.567Z,81.66
2019-04-04T05:50:11.337Z,81.76
2019-04-04T05:51:09.437Z,81.70
2019-04-04T05:52:09.390Z,81.49
2019-04-04T05:53:09.383Z,81.59
2019-04-04T05:54:09.561Z,82.31
2019-04-04T05:55:10.824Z,82.93
2019-04-04T05:56:09.349Z,82.62
2019-04-04T05:57:09.337Z,83.65
2019-04-04T05:58:09.331Z,82.52
2019-04-04T05:59:09.319Z,83.00
2019-04-04T06:00:09.307Z,82.89
2019-04-04T06:01:09.306Z,82.28
2019-04-04T06:02:11.537Z,81.96
2019-04-04T06:03:09.290Z,81.96
2019-04-04T06:04:09.272Z,81.66
2019-04-04T06:05:09.291Z,81.35
2019-04-04T06:06:10.568Z,81.45
2019-04-04T06:07:09.256Z,81.56
2019-04-04T06:08:09.216Z,81.56
2019-04-04T06:09:09.250Z,81.45
2019-04-04T06:10:11.863Z,81.45
2019-04-04T06:11:09.228Z,81.45
2019-04-04T06:12:09.173Z,81.96
2019-04-04T06:13:09.175Z,83.00
2019-04-04T06:14:09.153Z,82.59
2019-04-04T06:15:09.154Z,83.10
2019-04-04T06:16:09.162Z,83.62
2019-04-04T06:17:09.131Z,83.62
2019-04-04T06:18:11.758Z,83.31
2019-04-04T06:19:09.096Z,82.86
2019-04-04T06:20:09.088Z,82.96
2019-04-04T06:21:09.095Z,82.75
2019-04-04T06:22:09.065Z,81.48
2019-04-04T06:23:09.267Z,81.68
2019-04-04T06:24:09.041Z,80.65
2019-04-04T06:25:09.035Z,80.24
2019-04-04T06:26:09.236Z,80.24
2019-04-04T06:27:09.712Z,80.04
2019-04-04T06:28:09.887Z,80.10
2019-04-04T06:29:08.991Z,79.62
2019-04-04T06:30:09.009Z,80.14
2019-04-04T06:31:09.012Z,79.72
2019-04-04T06:32:08.961Z,80.24
2019-04-04T06:33:08.946Z,80.28
2019-04-04T06:34:10.410Z,80.28
2019-04-04T06:35:09.001Z,80.69
2019-04-04T06:36:08.930Z,80.69
2019-04-04T06:37:08.910Z,80.69
2019-04-04T06:38:08.890Z,80.28
2019-04-04T06:39:08.879Z,80.90
2019-04-04T06:40:08.869Z,80.58
2019-04-04T06:41:08.857Z,80.28
2019-04-04T06:42:11.226Z,79.86
2019-04-04T06:43:11.621Z,79.97
2019-04-04T06:44:08.836Z,80.65
2019-04-04T06:45:08.829Z,80.34
2019-04-04T06:46:08.804Z,80.58
2019-04-04T06:47:08.798Z,80.44
2019-04-04T06:48:08.799Z,80.65
2019-04-04T06:49:08.776Z,80.44
2019-04-04T06:50:08.771Z,80.44
2019-04-04T06:51:08.750Z,80.44
2019-04-04T06:52:09.494Z,81.54
2019-04-04T06:53:08.740Z,80.93
2019-04-04T06:54:08.723Z,79.75
2019-04-04T06:55:08.711Z,80.06
2019-04-04T06:56:08.708Z,78.93
2019-04-04T06:57:08.712Z,79.14
2019-04-04T06:58:09.649Z,78.31
2019-04-04T06:59:11.367Z,78.52
2019-04-04T07:00:08.667Z,78.11
2019-04-04T07:01:10.999Z,78.17
2019-04-04T07:02:08.673Z,78.48
2019-04-04T07:03:08.626Z,77.76
2019-04-04T07:04:08.623Z,77.14
2019-04-04T07:05:10.608Z,77.72
2019-04-04T07:06:10.238Z,76.59
2019-04-04T07:07:08.589Z,76.39
2019-04-04T07:08:08.581Z,77.38
2019-04-04T07:09:08.562Z,77.38
2019-04-04T07:10:08.554Z,76.66
2019-04-04T07:11:21.079Z,75.18
2019-04-04T07:12:20.913Z,74.67
2019-04-04T07:13:20.973Z,75.80
2019-04-04T07:14:09.560Z,76.07
2019-04-04T07:15:11.120Z,75.56
2019-04-04T07:16:08.489Z,75.25
2019-04-04T07:17:09.436Z,74.02
2019-04-04T07:18:10.170Z,73.88
2019-04-04T07:19:08.470Z,74.08
2019-04-04T07:20:08.444Z,73.68
2019-04-04T07:21:08.448Z,73.64
2019-04-04T07:22:08.421Z,73.23
2019-04-04T07:23:08.415Z,71.38
2019-04-04T07:24:08.394Z,70.63
2019-04-04T07:25:08.394Z,71.17
2019-04-04T07:26:09.615Z,71.08
2019-04-04T07:27:08.362Z,70.25
2019-04-04T07:28:08.434Z,70.76
2019-04-04T07:29:08.349Z,70.97
2019-04-04T07:30:08.329Z,70.76
2019-04-04T07:31:08.324Z,71.35
2019-04-04T07:32:09.477Z,74.94
2019-04-04T07:33:10.058Z,80.90
2019-04-04T07:34:08.292Z,78.23
2019-04-04T07:35:08.292Z,76.48
2019-04-04T07:36:08.267Z,76.58
2019-04-04T07:37:08.291Z,74.94
2019-04-04T07:38:08.251Z,74.32
2019-04-04T07:39:08.236Z,74.22
2019-04-04T07:40:08.231Z,72.68
2019-04-04T07:41:09.064Z,72.96
2019-04-04T07:42:08.232Z,73.68
2019-04-04T07:43:08.705Z,72.34
2019-04-04T07:44:08.178Z,71.62
2019-04-04T07:45:08.166Z,72.51
2019-04-04T07:46:16.389Z,71.18
2019-04-04T07:47:09.145Z,70.87
2019-04-04T07:48:08.130Z,71.39
2019-04-04T07:49:08.132Z,70.53
2019-04-04T07:50:08.106Z,71.15
2019-04-04T07:51:08.100Z,70.64
2019-04-04T07:52:08.085Z,69.78
2019-04-04T07:53:08.128Z,68.45
2019-04-04T07:54:08.128Z,68.93
2019-04-04T07:55:10.296Z,70.98
2019-04-04T07:56:08.042Z,68.90
2019-04-04T07:57:08.033Z,67.36
2019-04-04T07:58:08.030Z,67.84
2019-04-04T07:59:08.009Z,66.38
2019-04-04T08:00:08.002Z,66.86
2019-04-04T08:01:08.012Z,66.96
2019-04-04T08:02:07.979Z,66.21
2019-04-04T08:03:07.969Z,64.34
2019-04-04T08:04:07.961Z,63.40
2019-04-04T08:05:07.948Z,61.97
2019-04-04T08:06:07.935Z,61.94
2019-04-04T08:07:07.925Z,61.02
2019-04-04T08:08:07.914Z,59.59
2019-04-04T08:09:07.909Z,59.46
2019-04-04T08:10:19.592Z,60.76
2019-04-04T08:11:08.879Z,55.33
2019-04-04T08:12:07.866Z,56.55
2019-04-04T08:13:07.855Z,57.75
2019-04-04T08:14:07.855Z,58.26
2019-04-04T08:15:07.837Z,55.89
2019-04-04T08:16:07.858Z,56.07
2019-04-04T08:17:07.812Z,55.43
2019-04-04T08:18:07.881Z,55.02
2019-04-04T08:19:07.812Z,53.06
2019-04-04T08:20:07.780Z,55.30
2019-04-04T08:21:07.766Z,54.97
2019-04-04T08:22:07.797Z,51.72
2019-04-04T08:23:07.749Z,52.48
2019-04-04T08:24:07.737Z,51.46
2019-04-04T08:25:07.743Z,51.75
2019-04-04T08:26:10.064Z,49.59
2019-04-04T08:27:07.712Z,51.82
2019-04-04T08:28:07.695Z,50.89
2019-04-04T08:29:07.694Z,50.66
2019-04-04T08:30:07.680Z,48.74
2019-04-04T08:31:09.855Z,47.72
2019-04-04T08:32:07.653Z,48.96
2019-04-04T08:33:07.645Z,48.25
2019-04-04T08:34:07.630Z,50.79
2019-04-04T08:35:07.626Z,48.83
2019-04-04T08:36:07.604Z,49.65
2019-04-04T08:37:07.600Z,48.94
2019-04-04T08:38:07.607Z,48.94
2019-04-04T08:39:07.572Z,48.74
2019-04-04T08:40:07.575Z,47.11
2019-04-04T08:41:07.552Z,47.11
2019-04-04T08:42:07.543Z,46.91
2019-04-04T08:43:07.530Z,47.92
2019-04-04T08:44:07.524Z,47.85
2019-04-04T08:45:07.529Z,47.11
2019-04-04T08:46:07.496Z,49.27
2019-04-04T08:47:07.485Z,49.34
2019-04-04T08:48:07.478Z,48.66
2019-04-04T08:49:07.464Z,47.24
2019-04-04T08:50:07.465Z,48.74
2019-04-04T08:51:07.449Z,48.43
2019-04-04T08:52:16.446Z,49.06
2019-04-04T08:53:08.420Z,48.54
2019-04-04T08:54:07.443Z,49.04
2019-04-04T08:55:07.410Z,49.04
2019-04-04T08:56:07.408Z,48.74
2019-04-04T08:57:07.380Z,49.65
2019-04-04T08:58:07.368Z,47.39
2019-04-04T08:59:07.361Z,45.78
2019-04-04T09:00:07.357Z,47.19
2019-04-04T09:01:07.516Z,46.18
2019-04-04T09:02:07.334Z,46.77
2019-04-04T09:03:07.313Z,48.39
2019-04-04T09:04:07.300Z,45.53
2019-04-04T09:05:12.086Z,45.33
2019-04-04T09:06:08.283Z,44.92
2019-04-04T09:07:07.274Z,45.20
2019-04-04T09:08:07.338Z,46.91
2019-04-04T09:09:07.245Z,44.88
2019-04-04T09:10:07.236Z,45.37
2019-04-04T09:11:07.279Z,45.04
2019-04-04T09:12:07.211Z,44.23
2019-04-04T09:13:07.206Z,41.08
2019-04-04T09:14:07.196Z,43.10
2019-04-04T09:15:07.187Z,41.47
2019-04-04T09:16:07.173Z,39.65
2019-04-04T09:17:07.170Z,40.36
2019-04-04T09:18:07.161Z,40.54
2019-04-04T09:19:07.142Z,40.56
2019-04-04T09:20:09.554Z,38.34
2019-04-04T09:21:07.118Z,40.34
2019-04-04T09:22:10.679Z,39.63
2019-04-04T09:23:07.098Z,38.84
2019-04-04T09:24:07.090Z,38.34
2019-04-04T09:25:10.161Z,38.34
2019-04-04T09:26:07.062Z,38.75
2019-04-04T09:27:07.049Z,38.75
2019-04-04T09:28:07.050Z,39.94
2019-04-04T09:29:07.039Z,40.62
2019-04-04T09:30:07.091Z,39.92
2019-04-04T09:31:07.007Z,39.92
2019-04-04T09:32:06.998Z,40.20
2019-04-04T09:33:06.986Z,39.68
2019-04-04T09:34:06.985Z,38.07
2019-04-04T09:35:06.985Z,38.87
2019-04-04T09:36:06.990Z,40.99
2019-04-04T09:37:08.824Z,38.45
2019-04-04T09:38:06.940Z,36.96
2019-04-04T09:39:06.924Z,37.76
2019-04-04T09:40:06.936Z,38.85
2019-04-04T09:41:06.914Z,39.15
2019-04-04T09:42:06.932Z,38.45
2019-04-04T09:43:06.889Z,38.73
2019-04-04T09:44:06.869Z,38.01
2019-04-04T09:45:06.863Z,37.51
2019-04-04T09:46:06.858Z,36.30
2019-04-04T09:47:06.840Z,36.69
2019-04-04T09:48:06.824Z,36.49
2019-04-04T09:49:06.817Z,36.49
2019-04-04T09:50:06.827Z,35.66
2019-04-04T09:51:06.944Z,34.36
2019-04-04T09:52:06.801Z,35.06
2019-04-04T09:53:06.771Z,33.65
2019-04-04T09:54:06.765Z,34.76
2019-04-04T09:55:06.753Z,34.24
2019-04-04T09:56:06.863Z,34.34
2019-04-04T09:57:06.732Z,35.33
2019-04-04T09:58:06.731Z,32.21
2019-04-04T09:59:06.706Z,31.50
2019-04-04T10:00:06.700Z,33.31
2019-04-04T10:01:06.936Z,31.30
2019-04-04T10:02:06.674Z,31.71
2019-04-04T10:03:06.682Z,30.69
2019-04-04T10:04:06.653Z,31.70
2019-04-04T10:05:06.872Z,31.68
2019-04-04T10:06:06.653Z,30.87
2019-04-04T10:07:06.624Z,30.55
2019-04-04T10:08:06.613Z,30.07
2019-04-04T10:09:15.567Z,30.26
2019-04-04T10:10:07.595Z,31.96
2019-04-04T10:11:06.589Z,31.74
2019-04-04T10:12:06.567Z,30.44
2019-04-04T10:13:06.593Z,30.84
2019-04-04T10:14:06.551Z,30.02
2019-04-04T10:15:06.539Z,30.32
2019-04-04T10:16:06.542Z,30.91
2019-04-04T10:17:06.516Z,33.11
2019-04-04T10:18:06.509Z,31.01
2019-04-04T10:19:06.515Z,30.93
2019-04-04T10:20:06.485Z,30.44
2019-04-04T10:21:12.015Z,30.35
2019-04-04T10:22:07.466Z,31.47
2019-04-04T10:23:06.459Z,31.68
2019-04-04T10:24:06.447Z,32.89
2019-04-04T10:25:06.434Z,31.20
2019-04-04T10:26:06.464Z,31.99
2019-04-04T10:27:06.420Z,33.29
2019-04-04T10:28:06.420Z,32.09
2019-04-04T10:29:06.394Z,29.97
2019-04-04T10:30:06.384Z,30.07
2019-04-04T10:31:06.380Z,29.85
2019-04-04T10:32:06.366Z,31.46
2019-04-04T10:33:06.397Z,31.05
2019-04-04T10:34:06.359Z,30.95
2019-04-04T10:35:06.335Z,30.54
2019-04-04T10:36:06.339Z,31.54
2019-04-04T10:37:06.314Z,29.53
2019-04-04T10:38:06.298Z,30.44
2019-04-04T10:39:06.305Z,30.74
2019-04-04T10:40:06.280Z,33.04
2019-04-04T10:41:06.264Z,30.22
2019-04-04T10:42:06.330Z,30.51
2019-04-04T10:43:06.242Z,31.49
2019-04-04T10:44:06.233Z,32.28
2019-04-04T10:45:06.225Z,29.17
2019-04-04T10:46:06.224Z,29.05
2019-04-04T10:47:06.225Z,28.04
2019-04-04T10:48:06.205Z,29.04
2019-04-04T10:49:08.331Z,27.84
2019-04-04T10:50:06.175Z,30.22
2019-04-04T10:51:06.169Z,28.53
2019-04-04T10:52:06.170Z,28.44
2019-04-04T10:53:06.151Z,28.64
2019-04-04T10:54:06.137Z,27.56
2019-04-04T10:55:06.142Z,28.66
2019-04-04T10:56:06.141Z,28.67
2019-04-04T10:57:06.197Z,28.88
2019-04-04T10:58:06.100Z,28.57
2019-04-04T10:59:06.096Z,29.58
2019-04-04T11:00:06.075Z,28.68
2019-04-04T11:01:06.176Z,28.68
2019-04-04T11:02:06.058Z,28.08
2019-04-04T11:03:06.040Z,28.67
2019-04-04T11:04:06.030Z,29.18
2019-04-04T11:05:06.025Z,27.88
2019-04-04T11:06:06.018Z,27.70
2019-04-04T11:07:06.015Z,28.71
2019-04-04T11:08:06.096Z,30.04
2019-04-04T11:09:05.976Z,29.94
2019-04-04T11:10:05.970Z,31.46
2019-04-04T11:11:05.971Z,31.47
2019-04-04T11:12:05.963Z,30.88
2019-04-04T11:13:05.944Z,32.09
2019-04-04T11:14:05.946Z,32.20
2019-04-04T11:15:05.973Z,31.12
2019-04-04T11:16:05.929Z,32.32
2019-04-04T11:17:05.892Z,31.71
2019-04-04T11:18:05.885Z,32.82
2019-04-04T11:19:05.872Z,31.70
2019-04-04T11:20:05.865Z,31.68
2019-04-04T11:21:05.850Z,31.09
2019-04-04T11:22:05.863Z,30.97
2019-04-04T11:23:05.834Z,30.15
2019-04-04T11:24:05.825Z,30.05
2019-04-04T11:25:05.808Z,31.26
2019-04-04T11:26:05.798Z,30.15
2019-04-04T11:27:06.260Z,30.73
2019-04-04T11:28:05.774Z,31.02
2019-04-04T11:29:05.767Z,30.12
2019-04-04T11:30:05.766Z,31.11
2019-04-04T11:31:05.740Z,30.31
2019-04-04T11:32:05.747Z,29.90
2019-04-04T11:33:05.739Z,28.59
2019-04-04T11:34:05.715Z,29.21
2019-04-04T11:35:05.697Z,31.11
2019-04-04T11:36:05.792Z,31.91
2019-04-04T11:37:05.691Z,30.31
2019-04-04T11:38:05.668Z,29.93
2019-04-04T11:39:05.655Z,29.84
2019-04-04T11:40:05.647Z,30.44
2019-04-04T11:41:05.643Z,30.14
2019-04-04T11:42:05.640Z,30.94
2019-04-04T11:43:05.637Z,31.14
2019-04-04T11:44:05.602Z,31.76
2019-04-04T11:45:05.597Z,30.55
2019-04-04T11:46:05.580Z,31.26
2019-04-04T11:47:05.596Z,32.86
2019-04-04T11:48:05.573Z,32.96
2019-04-04T11:49:05.560Z,32.96
2019-04-04T11:50:05.540Z,31.05
2019-04-04T11:51:05.544Z,31.67
2019-04-04T11:52:05.598Z,31.67
2019-04-04T11:53:05.510Z,31.37
2019-04-04T11:54:05.493Z,30.97
2019-04-04T11:55:05.636Z,31.68
2019-04-04T11:56:05.489Z,30.88
2019-04-04T11:57:05.465Z,31.29
2019-04-04T11:58:05.497Z,31.80
2019-04-04T11:59:08.020Z,31.90
2019-04-04T12:00:05.437Z,31.80
2019-04-04T12:01:05.417Z,31.21
2019-04-04T12:02:05.416Z,32.52
2019-04-04T12:03:05.403Z,31.51
2019-04-04T12:04:05.391Z,33.02
2019-04-04T12:05:05.395Z,32.42
2019-04-04T12:06:05.379Z,32.20
2019-04-04T12:07:05.360Z,31.70
2019-04-04T12:08:05.358Z,31.80
2019-04-04T12:09:05.333Z,31.79
2019-04-04T12:10:07.815Z,32.69
2019-04-04T12:11:05.313Z,32.49
2019-04-04T12:12:05.402Z,35.60
2019-04-04T12:13:05.299Z,35.39
2019-04-04T12:14:05.280Z,35.10
2019-04-04T12:15:05.317Z,34.09
2019-04-04T12:16:05.262Z,35.69
2019-04-04T12:17:05.271Z,35.60
2019-04-04T12:18:05.272Z,35.60
2019-04-04T12:19:05.232Z,35.39
2019-04-04T12:20:05.219Z,35.60
2019-04-04T12:21:05.210Z,35.31
2019-04-04T12:22:05.204Z,35.51
2019-04-04T12:23:05.193Z,35.60
2019-04-04T12:24:05.173Z,35.51
2019-04-04T12:25:05.169Z,36.82
2019-04-04T12:26:05.250Z,36.11
2019-04-04T12:27:05.171Z,36.23
2019-04-04T12:28:05.142Z,36.83
2019-04-04T12:29:05.127Z,37.46
2019-04-04T12:30:05.295Z,37.15
2019-04-04T12:31:05.097Z,37.76
2019-04-04T12:32:05.090Z,37.85
2019-04-04T12:33:05.090Z,38.06
2019-04-04T12:34:05.098Z,38.36
2019-04-04T12:35:05.055Z,37.05
2019-04-04T12:36:05.046Z,37.27
2019-04-04T12:37:05.130Z,37.87
2019-04-04T12:38:05.036Z,37.57
2019-04-04T12:39:05.015Z,38.40
2019-04-04T12:40:05.002Z,37.49
2019-04-04T12:41:04.990Z,36.30
2019-04-04T12:42:04.983Z,37.41
2019-04-04T12:43:04.986Z,37.59
2019-04-04T12:44:04.983Z,37.89
2019-04-04T12:45:05.413Z,37.69
2019-04-04T12:46:04.936Z,36.49
2019-04-04T12:47:04.926Z,38.90
2019-04-04T12:48:04.960Z,37.08
2019-04-04T12:49:04.911Z,36.49
2019-04-04T12:50:04.892Z,37.29
2019-04-04T12:51:04.888Z,37.19
2019-04-04T12:52:04.881Z,37.08